sensor_id;sensor_type;location;lat;lon;timestamp;temperature;humidity
10911;DHT22;5508;49.150;11.030;2022-12-18T00:01:59;-13.20;99.00
10911;DHT22;5508;49.150;11.030;2022-12-18T00:04:59;-13.10;98.60
10911;DHT22;5508;49.150;11.030;2022-12-18T00:08:00;-13.00;98.10
10911;DHT22;5508;49.150;11.030;2022-12-18T00:11:08;-12.90;98.20
10911;DHT22;5508;49.150;11.030;2022-12-18T00:14:12;-12.70;97.90
10911;DHT22;5508;49.150;11.030;2022-12-18T00:17:12;-12.60;98.30
10911;DHT22;5508;49.150;11.030;2022-12-18T00:20:13;-12.50;98.00
10911;DHT22;5508;49.150;11.030;2022-12-18T00:23:14;-12.40;97.90
10911;DHT22;5508;49.150;11.030;2022-12-18T00:26:24;-12.20;98.10
10911;DHT22;5508;49.150;11.030;2022-12-18T00:29:24;-12.20;98.00
10911;DHT22;5508;49.150;11.030;2022-12-18T00:32:25;-12.00;98.00
10911;DHT22;5508;49.150;11.030;2022-12-18T00:35:25;-11.90;97.70
10911;DHT22;5508;49.150;11.030;2022-12-18T00:38:26;-11.80;97.10
10911;DHT22;5508;49.150;11.030;2022-12-18T00:41:27;-11.80;96.70
10911;DHT22;5508;49.150;11.030;2022-12-18T00:44:46;-11.80;96.40
10911;DHT22;5508;49.150;11.030;2022-12-18T00:47:47;-11.80;96.00
10911;DHT22;5508;49.150;11.030;2022-12-18T00:50:49;-11.90;95.90
10911;DHT22;5508;49.150;11.030;2022-12-18T00:53:49;-11.90;96.40
10911;DHT22;5508;49.150;11.030;2022-12-18T00:56:50;-12.00;97.10
10911;DHT22;5508;49.150;11.030;2022-12-18T00:59:50;-12.10;97.60
10911;DHT22;5508;49.150;11.030;2022-12-18T01:02:51;-12.10;98.20
10911;DHT22;5508;49.150;11.030;2022-12-18T01:05:52;-12.20;97.50
10911;DHT22;5508;49.150;11.030;2022-12-18T01:08:52;-12.40;97.40
10911;DHT22;5508;49.150;11.030;2022-12-18T01:11:53;-12.50;97.30
10911;DHT22;5508;49.150;11.030;2022-12-18T01:14:53;-12.60;97.00
10911;DHT22;5508;49.150;11.030;2022-12-18T01:17:54;-12.70;97.10
10911;DHT22;5508;49.150;11.030;2022-12-18T01:20:54;-12.70;97.80
10911;DHT22;5508;49.150;11.030;2022-12-18T01:23:56;-12.80;98.40
10911;DHT22;5508;49.150;11.030;2022-12-18T01:26:57;-12.80;98.70
10911;DHT22;5508;49.150;11.030;2022-12-18T01:29:58;-12.90;98.60
10911;DHT22;5508;49.150;11.030;2022-12-18T01:32:58;-12.90;98.60
10911;DHT22;5508;49.150;11.030;2022-12-18T01:35:59;-12.90;98.00
10911;DHT22;5508;49.150;11.030;2022-12-18T01:39:02;-12.90;97.10
10911;DHT22;5508;49.150;11.030;2022-12-18T01:42:05;-13.00;95.80
10911;DHT22;5508;49.150;11.030;2022-12-18T01:48:12;-13.10;95.60
10911;DHT22;5508;49.150;11.030;2022-12-18T01:51:13;-13.10;96.30
10911;DHT22;5508;49.150;11.030;2022-12-18T01:54:14;-13.20;96.60
10911;DHT22;5508;49.150;11.030;2022-12-18T01:57:15;-13.10;97.70
10911;DHT22;5508;49.150;11.030;2022-12-18T02:00:19;-13.10;97.70
10911;DHT22;5508;49.150;11.030;2022-12-18T02:03:20;-13.00;98.30
10911;DHT22;5508;49.150;11.030;2022-12-18T02:06:24;-12.90;99.00
10911;DHT22;5508;49.150;11.030;2022-12-18T02:09:33;-12.90;99.30
10911;DHT22;5508;49.150;11.030;2022-12-18T02:13:02;-12.80;99.40
10911;DHT22;5508;49.150;11.030;2022-12-18T02:23:04;-12.30;98.90
10911;DHT22;5508;49.150;11.030;2022-12-18T02:29:55;-12.00;98.30
10911;DHT22;5508;49.150;11.030;2022-12-18T02:32:58;-11.80;98.30
10911;DHT22;5508;49.150;11.030;2022-12-18T02:36:01;-11.70;98.40
10911;DHT22;5508;49.150;11.030;2022-12-18T02:39:05;-11.70;98.60
10911;DHT22;5508;49.150;11.030;2022-12-18T02:42:07;-11.60;99.00
10911;DHT22;5508;49.150;11.030;2022-12-18T02:45:08;-11.50;99.90
10911;DHT22;5508;49.150;11.030;2022-12-18T02:48:09;-11.40;99.90
10911;DHT22;5508;49.150;11.030;2022-12-18T02:51:31;-11.30;99.90
10911;DHT22;5508;49.150;11.030;2022-12-18T02:58:14;-11.00;99.20
10911;DHT22;5508;49.150;11.030;2022-12-18T03:01:34;-11.00;99.10
10911;DHT22;5508;49.150;11.030;2022-12-18T03:05:07;-10.90;99.40
10911;DHT22;5508;49.150;11.030;2022-12-18T03:08:26;-10.90;99.90
10911;DHT22;5508;49.150;11.030;2022-12-18T03:11:31;-10.70;99.80
10911;DHT22;5508;49.150;11.030;2022-12-18T03:18:32;-10.50;99.90
10911;DHT22;5508;49.150;11.030;2022-12-18T03:21:38;-10.50;99.90
10911;DHT22;5508;49.150;11.030;2022-12-18T03:24:40;-10.30;99.90
10911;DHT22;5508;49.150;11.030;2022-12-18T03:27:45;-10.30;99.90
10911;DHT22;5508;49.150;11.030;2022-12-18T03:30:49;-10.30;99.90
10911;DHT22;5508;49.150;11.030;2022-12-18T03:33:55;-10.20;99.90
10911;DHT22;5508;49.150;11.030;2022-12-18T03:36:58;-10.20;99.90
10911;DHT22;5508;49.150;11.030;2022-12-18T03:39:58;-10.10;99.90
10911;DHT22;5508;49.150;11.030;2022-12-18T03:43:03;-10.10;99.90
10911;DHT22;5508;49.150;11.030;2022-12-18T03:46:11;-10.00;99.90
10911;DHT22;5508;49.150;11.030;2022-12-18T03:49:41;-9.90;99.90
10911;DHT22;5508;49.150;11.030;2022-12-18T03:55:57;-9.70;99.90
10911;DHT22;5508;49.150;11.030;2022-12-18T03:59:01;-9.70;99.90
10911;DHT22;5508;49.150;11.030;2022-12-18T04:02:04;-9.50;99.90
10911;DHT22;5508;49.150;11.030;2022-12-18T04:05:07;-9.40;99.90
10911;DHT22;5508;49.150;11.030;2022-12-18T04:08:09;-9.30;99.90
10911;DHT22;5508;49.150;11.030;2022-12-18T04:11:09;-9.40;99.90
10911;DHT22;5508;49.150;11.030;2022-12-18T04:14:11;-9.30;99.90
10911;DHT22;5508;49.150;11.030;2022-12-18T04:17:11;-9.30;99.90
10911;DHT22;5508;49.150;11.030;2022-12-18T04:20:12;-9.20;99.90
10911;DHT22;5508;49.150;11.030;2022-12-18T04:23:13;-9.20;99.90
10911;DHT22;5508;49.150;11.030;2022-12-18T04:26:14;-9.10;99.90
10911;DHT22;5508;49.150;11.030;2022-12-18T04:29:15;-9.10;99.90
10911;DHT22;5508;49.150;11.030;2022-12-18T04:32:15;-9.00;99.90
10911;DHT22;5508;49.150;11.030;2022-12-18T04:35:16;-8.90;99.90
10911;DHT22;5508;49.150;11.030;2022-12-18T04:38:16;-8.90;99.90
10911;DHT22;5508;49.150;11.030;2022-12-18T04:41:17;-8.90;99.90
10911;DHT22;5508;49.150;11.030;2022-12-18T04:44:18;-8.80;99.90
10911;DHT22;5508;49.150;11.030;2022-12-18T04:47:18;-8.70;99.90
10911;DHT22;5508;49.150;11.030;2022-12-18T04:50:19;-8.60;99.90
10911;DHT22;5508;49.150;11.030;2022-12-18T04:53:19;-8.40;99.90
10911;DHT22;5508;49.150;11.030;2022-12-18T04:56:20;-8.10;99.90
10911;DHT22;5508;49.150;11.030;2022-12-18T04:59:21;-8.10;99.90
10911;DHT22;5508;49.150;11.030;2022-12-18T05:02:22;-8.00;99.90
10911;DHT22;5508;49.150;11.030;2022-12-18T05:05:22;-7.90;99.90
10911;DHT22;5508;49.150;11.030;2022-12-18T05:08:23;-7.90;99.90
10911;DHT22;5508;49.150;11.030;2022-12-18T05:11:24;-7.80;99.90
10911;DHT22;5508;49.150;11.030;2022-12-18T05:14:24;-7.80;99.90
10911;DHT22;5508;49.150;11.030;2022-12-18T05:17:25;-7.50;99.90
10911;DHT22;5508;49.150;11.030;2022-12-18T05:20:26;-7.40;99.90
10911;DHT22;5508;49.150;11.030;2022-12-18T05:23:27;-7.20;99.90
10911;DHT22;5508;49.150;11.030;2022-12-18T05:26:28;-7.20;99.90
10911;DHT22;5508;49.150;11.030;2022-12-18T05:29:29;-7.20;99.90
10911;DHT22;5508;49.150;11.030;2022-12-18T05:32:29;-7.20;99.90
10911;DHT22;5508;49.150;11.030;2022-12-18T05:35:30;-7.10;99.90
10911;DHT22;5508;49.150;11.030;2022-12-18T05:38:32;-7.10;99.90
10911;DHT22;5508;49.150;11.030;2022-12-18T05:41:33;-7.00;99.90
10911;DHT22;5508;49.150;11.030;2022-12-18T05:44:33;-7.00;99.90
10911;DHT22;5508;49.150;11.030;2022-12-18T05:47:34;-7.00;99.90
10911;DHT22;5508;49.150;11.030;2022-12-18T05:50:39;-7.00;99.90
10911;DHT22;5508;49.150;11.030;2022-12-18T05:53:40;-7.00;99.90
10911;DHT22;5508;49.150;11.030;2022-12-18T05:56:41;-7.00;99.90
10911;DHT22;5508;49.150;11.030;2022-12-18T05:59:42;-7.00;99.90
10911;DHT22;5508;49.150;11.030;2022-12-18T06:02:46;-6.90;99.90
10911;DHT22;5508;49.150;11.030;2022-12-18T06:05:47;-6.90;99.90
10911;DHT22;5508;49.150;11.030;2022-12-18T06:08:48;-6.80;99.90
10911;DHT22;5508;49.150;11.030;2022-12-18T06:11:51;-6.80;99.90
10911;DHT22;5508;49.150;11.030;2022-12-18T06:14:52;-6.70;99.90
10911;DHT22;5508;49.150;11.030;2022-12-18T06:17:52;-6.70;99.90
10911;DHT22;5508;49.150;11.030;2022-12-18T06:20:56;-6.70;99.90
10911;DHT22;5508;49.150;11.030;2022-12-18T06:23:57;-6.70;99.90
10911;DHT22;5508;49.150;11.030;2022-12-18T06:26:58;-6.70;99.90
10911;DHT22;5508;49.150;11.030;2022-12-18T06:29:59;-6.70;99.90
10911;DHT22;5508;49.150;11.030;2022-12-18T06:33:00;-6.70;99.90
10911;DHT22;5508;49.150;11.030;2022-12-18T06:36:06;-6.60;99.90
10911;DHT22;5508;49.150;11.030;2022-12-18T06:39:07;-6.50;99.90
10911;DHT22;5508;49.150;11.030;2022-12-18T06:42:08;-6.50;99.90
10911;DHT22;5508;49.150;11.030;2022-12-18T06:45:09;-6.50;99.90
10911;DHT22;5508;49.150;11.030;2022-12-18T06:48:10;-6.50;99.90
10911;DHT22;5508;49.150;11.030;2022-12-18T06:51:10;-6.50;99.90
10911;DHT22;5508;49.150;11.030;2022-12-18T06:54:11;-6.50;99.90
10911;DHT22;5508;49.150;11.030;2022-12-18T06:57:11;-6.50;99.90
10911;DHT22;5508;49.150;11.030;2022-12-18T07:00:12;-6.40;99.90
10911;DHT22;5508;49.150;11.030;2022-12-18T07:03:13;-6.40;99.90
10911;DHT22;5508;49.150;11.030;2022-12-18T07:06:16;-6.30;99.90
10911;DHT22;5508;49.150;11.030;2022-12-18T07:09:17;-6.30;99.90
10911;DHT22;5508;49.150;11.030;2022-12-18T07:12:18;-6.20;99.90
10911;DHT22;5508;49.150;11.030;2022-12-18T07:15:19;-6.30;99.90
10911;DHT22;5508;49.150;11.030;2022-12-18T07:18:19;-6.30;99.90
10911;DHT22;5508;49.150;11.030;2022-12-18T07:21:20;-6.20;99.90
10911;DHT22;5508;49.150;11.030;2022-12-18T07:24:21;-6.20;99.90
10911;DHT22;5508;49.150;11.030;2022-12-18T07:27:22;-6.10;99.90
10911;DHT22;5508;49.150;11.030;2022-12-18T07:30:23;-6.10;99.90
10911;DHT22;5508;49.150;11.030;2022-12-18T07:33:24;-6.10;99.90
10911;DHT22;5508;49.150;11.030;2022-12-18T07:36:25;-6.00;99.90
10911;DHT22;5508;49.150;11.030;2022-12-18T07:39:25;-5.90;99.90
10911;DHT22;5508;49.150;11.030;2022-12-18T07:42:26;-5.90;99.90
10911;DHT22;5508;49.150;11.030;2022-12-18T07:45:32;-5.80;99.90
10911;DHT22;5508;49.150;11.030;2022-12-18T07:48:33;-5.80;99.90
10911;DHT22;5508;49.150;11.030;2022-12-18T07:51:34;-5.70;99.90
10911;DHT22;5508;49.150;11.030;2022-12-18T07:54:34;-5.70;99.90
10911;DHT22;5508;49.150;11.030;2022-12-18T07:57:35;-5.60;99.90
10911;DHT22;5508;49.150;11.030;2022-12-18T08:00:35;-5.60;99.90
10911;DHT22;5508;49.150;11.030;2022-12-18T08:03:37;-5.50;99.90
10911;DHT22;5508;49.150;11.030;2022-12-18T08:06:37;-5.40;99.90
10911;DHT22;5508;49.150;11.030;2022-12-18T08:09:38;-5.40;99.90
10911;DHT22;5508;49.150;11.030;2022-12-18T08:12:39;-5.30;99.90
10911;DHT22;5508;49.150;11.030;2022-12-18T08:15:39;-5.20;99.90
10911;DHT22;5508;49.150;11.030;2022-12-18T08:18:40;-5.20;99.90
10911;DHT22;5508;49.150;11.030;2022-12-18T08:21:41;-5.10;99.90
10911;DHT22;5508;49.150;11.030;2022-12-18T08:24:41;-5.00;99.90
10911;DHT22;5508;49.150;11.030;2022-12-18T08:27:42;-4.90;99.90
10911;DHT22;5508;49.150;11.030;2022-12-18T08:30:42;-4.90;99.90
10911;DHT22;5508;49.150;11.030;2022-12-18T08:33:43;-4.80;99.90
10911;DHT22;5508;49.150;11.030;2022-12-18T08:36:44;-4.70;99.90
10911;DHT22;5508;49.150;11.030;2022-12-18T08:39:44;-4.70;99.50
10911;DHT22;5508;49.150;11.030;2022-12-18T08:42:45;-4.60;99.30
10911;DHT22;5508;49.150;11.030;2022-12-18T08:46:04;-4.50;99.20
10911;DHT22;5508;49.150;11.030;2022-12-18T08:49:05;-4.60;98.30
10911;DHT22;5508;49.150;11.030;2022-12-18T08:52:06;-4.50;98.40
10911;DHT22;5508;49.150;11.030;2022-12-18T08:55:08;-4.50;98.00
10911;DHT22;5508;49.150;11.030;2022-12-18T08:58:08;-4.40;97.40
10911;DHT22;5508;49.150;11.030;2022-12-18T09:01:11;-4.40;97.40
10911;DHT22;5508;49.150;11.030;2022-12-18T09:04:12;-4.30;97.10
10911;DHT22;5508;49.150;11.030;2022-12-18T09:07:14;-4.20;96.10
10911;DHT22;5508;49.150;11.030;2022-12-18T09:10:17;-4.00;95.90
10911;DHT22;5508;49.150;11.030;2022-12-18T09:13:18;-3.80;95.50
10911;DHT22;5508;49.150;11.030;2022-12-18T09:16:20;-3.90;94.60
10911;DHT22;5508;49.150;11.030;2022-12-18T09:19:20;-4.00;94.10
10911;DHT22;5508;49.150;11.030;2022-12-18T09:22:21;-4.00;94.00
10911;DHT22;5508;49.150;11.030;2022-12-18T09:25:22;-4.00;94.30
10911;DHT22;5508;49.150;11.030;2022-12-18T09:28:22;-4.00;93.50
10911;DHT22;5508;49.150;11.030;2022-12-18T09:31:24;-4.00;93.40
10911;DHT22;5508;49.150;11.030;2022-12-18T09:34:25;-4.10;93.90
10911;DHT22;5508;49.150;11.030;2022-12-18T09:37:25;-4.10;93.90
10911;DHT22;5508;49.150;11.030;2022-12-18T09:40:36;-4.20;93.90
10911;DHT22;5508;49.150;11.030;2022-12-18T09:43:49;-4.10;94.80
10911;DHT22;5508;49.150;11.030;2022-12-18T09:50:29;-4.00;94.30
10911;DHT22;5508;49.150;11.030;2022-12-18T09:53:34;-3.90;93.60
10911;DHT22;5508;49.150;11.030;2022-12-18T09:56:40;-3.80;93.30
10911;DHT22;5508;49.150;11.030;2022-12-18T09:59:45;-3.70;93.80
10911;DHT22;5508;49.150;11.030;2022-12-18T10:02:47;-3.70;93.60
10911;DHT22;5508;49.150;11.030;2022-12-18T10:06:06;-3.70;94.20
10911;DHT22;5508;49.150;11.030;2022-12-18T10:26:31;-3.10;89.00
10911;DHT22;5508;49.150;11.030;2022-12-18T10:29:32;-3.10;88.80
10911;DHT22;5508;49.150;11.030;2022-12-18T10:32:32;-3.10;89.20
10911;DHT22;5508;49.150;11.030;2022-12-18T10:35:34;-3.10;90.00
10911;DHT22;5508;49.150;11.030;2022-12-18T10:38:35;-2.90;89.50
10911;DHT22;5508;49.150;11.030;2022-12-18T10:41:36;-2.70;89.10
10911;DHT22;5508;49.150;11.030;2022-12-18T10:44:36;-2.70;88.70
10911;DHT22;5508;49.150;11.030;2022-12-18T10:47:42;-2.70;87.50
10911;DHT22;5508;49.150;11.030;2022-12-18T10:50:47;-3.00;86.80
10911;DHT22;5508;49.150;11.030;2022-12-18T10:53:55;-3.00;87.90
10911;DHT22;5508;49.150;11.030;2022-12-18T10:57:56;-2.90;88.30
10911;DHT22;5508;49.150;11.030;2022-12-18T11:00:38;-3.00;88.00
10911;DHT22;5508;49.150;11.030;2022-12-18T11:03:44;-2.70;87.70
10911;DHT22;5508;49.150;11.030;2022-12-18T11:07:03;-2.80;87.00
10911;DHT22;5508;49.150;11.030;2022-12-18T11:10:04;-2.70;86.50
10911;DHT22;5508;49.150;11.030;2022-12-18T11:13:16;-3.10;87.10
10911;DHT22;5508;49.150;11.030;2022-12-18T11:16:19;-3.10;88.30
10911;DHT22;5508;49.150;11.030;2022-12-18T11:19:26;-3.20;88.70
10911;DHT22;5508;49.150;11.030;2022-12-18T11:22:31;-3.30;90.30
10911;DHT22;5508;49.150;11.030;2022-12-18T11:25:33;-3.00;89.40
10911;DHT22;5508;49.150;11.030;2022-12-18T11:28:49;-2.70;88.80
10911;DHT22;5508;49.150;11.030;2022-12-18T11:31:51;-2.40;87.80
10911;DHT22;5508;49.150;11.030;2022-12-18T11:35:01;-1.90;85.70
10911;DHT22;5508;49.150;11.030;2022-12-18T11:38:21;-1.50;84.50
10911;DHT22;5508;49.150;11.030;2022-12-18T11:41:32;-1.50;82.50
10911;DHT22;5508;49.150;11.030;2022-12-18T11:44:58;-1.60;82.50
10911;DHT22;5508;49.150;11.030;2022-12-18T11:48:11;-1.70;84.10
10911;DHT22;5508;49.150;11.030;2022-12-18T11:51:28;-1.70;83.80
10911;DHT22;5508;49.150;11.030;2022-12-18T11:54:30;-1.50;83.50
10911;DHT22;5508;49.150;11.030;2022-12-18T11:57:51;-1.70;83.10
10911;DHT22;5508;49.150;11.030;2022-12-18T12:07:46;-2.00;84.10
10911;DHT22;5508;49.150;11.030;2022-12-18T12:11:12;-2.00;85.30
10911;DHT22;5508;49.150;11.030;2022-12-18T12:21:31;-1.90;83.10
10911;DHT22;5508;49.150;11.030;2022-12-18T12:24:47;-1.90;84.30
10911;DHT22;5508;49.150;11.030;2022-12-18T12:37:57;-2.60;86.20
10911;DHT22;5508;49.150;11.030;2022-12-18T12:41:04;-2.50;86.20
10911;DHT22;5508;49.150;11.030;2022-12-18T12:44:09;-2.60;86.60
10911;DHT22;5508;49.150;11.030;2022-12-18T12:47:18;-2.70;87.60
10911;DHT22;5508;49.150;11.030;2022-12-18T12:50:20;-2.90;87.40
10911;DHT22;5508;49.150;11.030;2022-12-18T12:53:32;-2.90;88.60
10911;DHT22;5508;49.150;11.030;2022-12-18T12:56:49;-2.90;88.40
10911;DHT22;5508;49.150;11.030;2022-12-18T13:03:01;-3.20;89.70
10911;DHT22;5508;49.150;11.030;2022-12-18T13:06:25;-3.30;90.00
10911;DHT22;5508;49.150;11.030;2022-12-18T13:09:33;-3.30;90.80
10911;DHT22;5508;49.150;11.030;2022-12-18T13:12:35;-3.20;91.30
10911;DHT22;5508;49.150;11.030;2022-12-18T13:16:06;-3.10;90.40
10911;DHT22;5508;49.150;11.030;2022-12-18T13:19:22;-3.00;89.70
10911;DHT22;5508;49.150;11.030;2022-12-18T13:22:28;-3.00;89.30
10911;DHT22;5508;49.150;11.030;2022-12-18T13:25:34;-2.90;89.50
10911;DHT22;5508;49.150;11.030;2022-12-18T13:41:32;-2.80;88.90
10911;DHT22;5508;49.150;11.030;2022-12-18T13:44:40;-3.00;88.90
10911;DHT22;5508;49.150;11.030;2022-12-18T13:47:43;-3.20;90.50
10911;DHT22;5508;49.150;11.030;2022-12-18T13:50:53;-3.20;90.90
10911;DHT22;5508;49.150;11.030;2022-12-18T13:54:01;-3.10;91.00
10911;DHT22;5508;49.150;11.030;2022-12-18T13:57:04;-3.00;91.00
10911;DHT22;5508;49.150;11.030;2022-12-18T14:03:27;-3.00;89.80
10911;DHT22;5508;49.150;11.030;2022-12-18T14:06:28;-3.10;90.60
10911;DHT22;5508;49.150;11.030;2022-12-18T14:09:33;-3.00;90.60
10911;DHT22;5508;49.150;11.030;2022-12-18T14:12:36;-3.00;90.40
10911;DHT22;5508;49.150;11.030;2022-12-18T14:15:56;-3.10;90.00
10911;DHT22;5508;49.150;11.030;2022-12-18T14:18:57;-3.20;91.40
10911;DHT22;5508;49.150;11.030;2022-12-18T14:22:00;-3.20;91.30
10911;DHT22;5508;49.150;11.030;2022-12-18T14:28:15;-3.20;91.30
10911;DHT22;5508;49.150;11.030;2022-12-18T14:31:28;-3.40;92.10
10911;DHT22;5508;49.150;11.030;2022-12-18T14:34:29;-3.50;93.00
10911;DHT22;5508;49.150;11.030;2022-12-18T14:37:30;-3.50;93.30
10911;DHT22;5508;49.150;11.030;2022-12-18T14:40:31;-3.70;93.50
10911;DHT22;5508;49.150;11.030;2022-12-18T14:43:34;-3.80;95.00
10911;DHT22;5508;49.150;11.030;2022-12-18T14:46:46;-3.90;95.80
10911;DHT22;5508;49.150;11.030;2022-12-18T14:49:48;-3.90;97.20
10911;DHT22;5508;49.150;11.030;2022-12-18T14:52:49;-3.90;96.60
10911;DHT22;5508;49.150;11.030;2022-12-18T14:55:50;-3.90;97.20
10911;DHT22;5508;49.150;11.030;2022-12-18T14:58:57;-4.10;96.70
10911;DHT22;5508;49.150;11.030;2022-12-18T15:02:22;-4.20;97.50
10911;DHT22;5508;49.150;11.030;2022-12-18T15:05:31;-4.30;97.70
10911;DHT22;5508;49.150;11.030;2022-12-18T15:08:36;-4.40;98.30
10911;DHT22;5508;49.150;11.030;2022-12-18T15:14:41;-4.50;99.40
10911;DHT22;5508;49.150;11.030;2022-12-18T15:17:42;-4.40;99.80
10911;DHT22;5508;49.150;11.030;2022-12-18T15:21:16;-4.60;99.90
10911;DHT22;5508;49.150;11.030;2022-12-18T15:24:29;-4.60;99.90
10911;DHT22;5508;49.150;11.030;2022-12-18T15:27:35;-4.60;99.90
10911;DHT22;5508;49.150;11.030;2022-12-18T15:30:38;-4.70;99.90
10911;DHT22;5508;49.150;11.030;2022-12-18T15:39:41;-4.80;99.90
10911;DHT22;5508;49.150;11.030;2022-12-18T15:42:42;-4.80;99.90
10911;DHT22;5508;49.150;11.030;2022-12-18T15:46:04;-4.90;99.90
10911;DHT22;5508;49.150;11.030;2022-12-18T15:49:05;-4.80;99.90
10911;DHT22;5508;49.150;11.030;2022-12-18T15:52:05;-4.90;99.90
10911;DHT22;5508;49.150;11.030;2022-12-18T15:55:15;-5.00;99.90
10911;DHT22;5508;49.150;11.030;2022-12-18T15:58:34;-4.90;99.90
10911;DHT22;5508;49.150;11.030;2022-12-18T16:01:35;-5.00;99.90
10911;DHT22;5508;49.150;11.030;2022-12-18T16:04:35;-4.90;99.90
10911;DHT22;5508;49.150;11.030;2022-12-18T16:07:36;-4.90;99.90
10911;DHT22;5508;49.150;11.030;2022-12-18T16:10:37;-5.00;99.90
10911;DHT22;5508;49.150;11.030;2022-12-18T16:13:37;-4.90;99.90
10911;DHT22;5508;49.150;11.030;2022-12-18T16:16:38;-5.00;99.90
10911;DHT22;5508;49.150;11.030;2022-12-18T16:19:38;-4.90;99.90
10911;DHT22;5508;49.150;11.030;2022-12-18T16:22:39;-4.90;99.90
10911;DHT22;5508;49.150;11.030;2022-12-18T16:25:39;-4.90;99.90
10911;DHT22;5508;49.150;11.030;2022-12-18T16:28:40;-4.90;99.90
10911;DHT22;5508;49.150;11.030;2022-12-18T16:31:41;-4.90;99.90
10911;DHT22;5508;49.150;11.030;2022-12-18T16:34:42;-4.90;99.90
10911;DHT22;5508;49.150;11.030;2022-12-18T16:37:44;-5.00;99.90
10911;DHT22;5508;49.150;11.030;2022-12-18T16:40:44;-5.00;99.90
10911;DHT22;5508;49.150;11.030;2022-12-18T16:44:14;-5.00;99.90
10911;DHT22;5508;49.150;11.030;2022-12-18T16:47:15;-5.10;99.90
10911;DHT22;5508;49.150;11.030;2022-12-18T16:50:16;-5.20;99.90
10911;DHT22;5508;49.150;11.030;2022-12-18T16:53:16;-5.20;99.90
10911;DHT22;5508;49.150;11.030;2022-12-18T16:56:17;-5.20;99.90
10911;DHT22;5508;49.150;11.030;2022-12-18T16:59:18;-5.20;99.90
10911;DHT22;5508;49.150;11.030;2022-12-18T17:02:21;-5.20;99.90
10911;DHT22;5508;49.150;11.030;2022-12-18T17:05:22;-5.20;99.90
10911;DHT22;5508;49.150;11.030;2022-12-18T17:08:22;-5.20;99.90
10911;DHT22;5508;49.150;11.030;2022-12-18T17:11:25;-5.20;99.90
10911;DHT22;5508;49.150;11.030;2022-12-18T17:14:26;-5.20;99.90
10911;DHT22;5508;49.150;11.030;2022-12-18T17:17:27;-5.20;99.90
10911;DHT22;5508;49.150;11.030;2022-12-18T17:20:29;-5.20;99.90
10911;DHT22;5508;49.150;11.030;2022-12-18T17:23:30;-5.40;99.90
10911;DHT22;5508;49.150;11.030;2022-12-18T17:26:30;-5.50;99.90
10911;DHT22;5508;49.150;11.030;2022-12-18T17:29:31;-5.60;99.90
10911;DHT22;5508;49.150;11.030;2022-12-18T17:32:32;-5.50;99.90
10911;DHT22;5508;49.150;11.030;2022-12-18T17:35:32;-5.40;99.90
10911;DHT22;5508;49.150;11.030;2022-12-18T17:38:33;-5.40;99.90
10911;DHT22;5508;49.150;11.030;2022-12-18T17:41:34;-5.30;99.90
10911;DHT22;5508;49.150;11.030;2022-12-18T17:44:35;-5.40;99.90
10911;DHT22;5508;49.150;11.030;2022-12-18T17:47:36;-5.50;99.90
10911;DHT22;5508;49.150;11.030;2022-12-18T17:50:36;-5.50;99.90
10911;DHT22;5508;49.150;11.030;2022-12-18T17:53:38;-5.50;99.90
10911;DHT22;5508;49.150;11.030;2022-12-18T17:56:38;-5.60;99.90
10911;DHT22;5508;49.150;11.030;2022-12-18T17:59:39;-5.50;99.90
10911;DHT22;5508;49.150;11.030;2022-12-18T18:02:40;-5.60;99.90
10911;DHT22;5508;49.150;11.030;2022-12-18T18:05:40;-5.60;99.90
10911;DHT22;5508;49.150;11.030;2022-12-18T18:08:41;-5.50;99.90
10911;DHT22;5508;49.150;11.030;2022-12-18T18:11:41;-5.60;99.90
10911;DHT22;5508;49.150;11.030;2022-12-18T18:15:01;-5.60;99.90
10911;DHT22;5508;49.150;11.030;2022-12-18T18:18:01;-5.50;99.90
10911;DHT22;5508;49.150;11.030;2022-12-18T18:21:06;-5.50;99.90
10911;DHT22;5508;49.150;11.030;2022-12-18T18:24:08;-5.60;99.90
10911;DHT22;5508;49.150;11.030;2022-12-18T18:27:09;-5.60;99.90
10911;DHT22;5508;49.150;11.030;2022-12-18T18:30:10;-5.50;99.90
10911;DHT22;5508;49.150;11.030;2022-12-18T18:33:11;-5.50;99.90
10911;DHT22;5508;49.150;11.030;2022-12-18T18:36:12;-5.50;99.90
10911;DHT22;5508;49.150;11.030;2022-12-18T18:39:13;-5.50;99.90
10911;DHT22;5508;49.150;11.030;2022-12-18T18:42:14;-5.50;99.90
10911;DHT22;5508;49.150;11.030;2022-12-18T18:45:14;-5.50;99.90
10911;DHT22;5508;49.150;11.030;2022-12-18T18:48:15;-5.50;99.90
10911;DHT22;5508;49.150;11.030;2022-12-18T18:51:17;-5.50;99.90
10911;DHT22;5508;49.150;11.030;2022-12-18T18:54:18;-5.50;99.90
10911;DHT22;5508;49.150;11.030;2022-12-18T18:57:20;-5.50;99.90
10911;DHT22;5508;49.150;11.030;2022-12-18T19:00:20;-5.60;99.90
10911;DHT22;5508;49.150;11.030;2022-12-18T19:03:21;-5.60;99.90
10911;DHT22;5508;49.150;11.030;2022-12-18T19:06:25;-5.60;99.90
10911;DHT22;5508;49.150;11.030;2022-12-18T19:09:26;-5.60;99.90
10911;DHT22;5508;49.150;11.030;2022-12-18T19:12:26;-5.60;99.90
10911;DHT22;5508;49.150;11.030;2022-12-18T19:15:50;-5.60;99.90
10911;DHT22;5508;49.150;11.030;2022-12-18T19:18:51;-5.70;99.90
10911;DHT22;5508;49.150;11.030;2022-12-18T19:21:54;-5.80;99.90
10911;DHT22;5508;49.150;11.030;2022-12-18T19:24:54;-5.70;99.90
10911;DHT22;5508;49.150;11.030;2022-12-18T19:27:55;-5.70;99.90
10911;DHT22;5508;49.150;11.030;2022-12-18T19:30:59;-5.60;99.90
10911;DHT22;5508;49.150;11.030;2022-12-18T19:34:01;-5.50;99.90
10911;DHT22;5508;49.150;11.030;2022-12-18T19:37:02;-5.50;99.90
10911;DHT22;5508;49.150;11.030;2022-12-18T19:40:03;-5.50;99.90
10911;DHT22;5508;49.150;11.030;2022-12-18T19:43:03;-5.40;99.90
10911;DHT22;5508;49.150;11.030;2022-12-18T19:46:05;-5.50;99.90
10911;DHT22;5508;49.150;11.030;2022-12-18T19:49:06;-5.40;99.90
10911;DHT22;5508;49.150;11.030;2022-12-18T19:52:07;-5.40;99.90
10911;DHT22;5508;49.150;11.030;2022-12-18T19:55:08;-5.40;99.90
10911;DHT22;5508;49.150;11.030;2022-12-18T19:58:08;-5.50;99.90
10911;DHT22;5508;49.150;11.030;2022-12-18T20:01:09;-5.50;99.90
10911;DHT22;5508;49.150;11.030;2022-12-18T20:04:10;-5.40;99.90
10911;DHT22;5508;49.150;11.030;2022-12-18T20:07:10;-5.40;99.90
10911;DHT22;5508;49.150;11.030;2022-12-18T20:10:12;-5.40;99.90
10911;DHT22;5508;49.150;11.030;2022-12-18T20:13:15;-5.40;99.90
10911;DHT22;5508;49.150;11.030;2022-12-18T20:16:15;-5.50;99.90
10911;DHT22;5508;49.150;11.030;2022-12-18T20:19:16;-5.50;99.90
10911;DHT22;5508;49.150;11.030;2022-12-18T20:22:17;-5.50;99.90
10911;DHT22;5508;49.150;11.030;2022-12-18T20:25:17;-5.50;99.90
10911;DHT22;5508;49.150;11.030;2022-12-18T20:28:18;-5.50;99.90
10911;DHT22;5508;49.150;11.030;2022-12-18T20:31:19;-5.40;99.90
10911;DHT22;5508;49.150;11.030;2022-12-18T20:34:20;-5.40;99.90
10911;DHT22;5508;49.150;11.030;2022-12-18T20:37:20;-5.40;99.90
10911;DHT22;5508;49.150;11.030;2022-12-18T20:40:22;-5.30;99.90
10911;DHT22;5508;49.150;11.030;2022-12-18T20:43:22;-5.30;99.90
10911;DHT22;5508;49.150;11.030;2022-12-18T20:46:23;-5.20;99.90
10911;DHT22;5508;49.150;11.030;2022-12-18T20:49:25;-5.20;99.90
10911;DHT22;5508;49.150;11.030;2022-12-18T20:52:25;-5.20;99.90
10911;DHT22;5508;49.150;11.030;2022-12-18T20:55:26;-5.30;99.90
10911;DHT22;5508;49.150;11.030;2022-12-18T20:58:27;-5.30;99.90